createdAt,value
2019-02-15T00:02:14.333Z,68.76
2019-02-15T00:04:44.854Z,68.69
2019-02-15T00:07:15.698Z,68.76
2019-02-15T00:09:46.551Z,68.68
2019-02-15T00:12:17.469Z,68.99
2019-02-15T00:14:49.034Z,68.80
2019-02-15T00:17:24.344Z,68.98
2019-02-15T00:19:56.713Z,68.87
2019-02-15T00:22:28.667Z,68.74
2019-02-15T00:24:59.116Z,68.92
2019-02-15T00:27:29.834Z,68.78
2019-02-15T00:30:00.707Z,68.97
2019-02-15T00:32:31.527Z,69.23
2019-02-15T00:35:02.347Z,69.23
2019-02-15T00:37:32.773Z,69.18
2019-02-15T00:40:04.846Z,68.94
2019-02-15T00:42:36.767Z,69.20
2019-02-15T00:45:08.884Z,69.14
2019-02-15T00:47:41.266Z,68.85
2019-02-15T00:50:13.731Z,69.27
2019-02-15T00:52:52.351Z,69.16
2019-02-15T00:55:24.702Z,69.00
2019-02-15T00:58:03.339Z,68.97
2019-02-15T01:00:52.403Z,68.80
2019-02-15T01:03:33.676Z,69.14
2019-02-15T01:06:20.914Z,69.03
2019-02-15T01:08:53.280Z,69.23
2019-02-15T01:11:25.754Z,69.15
2019-02-15T01:13:56.484Z,69.20
2019-02-15T01:16:27.202Z,69.30
2019-02-15T01:18:57.994Z,69.30
2019-02-15T01:21:28.874Z,69.24
2019-02-15T01:23:59.670Z,69.40
2019-02-15T01:26:32.110Z,69.44
2019-02-15T01:29:20.974Z,69.70
2019-02-15T01:31:55.773Z,69.75
2019-02-15T01:34:28.248Z,69.79
2019-02-15T01:37:00.651Z,69.53
2019-02-15T01:39:38.746Z,69.66
2019-02-15T01:42:17.072Z,69.45
2019-02-15T01:44:58.238Z,69.58
2019-02-15T01:47:29.186Z,69.42
2019-02-15T01:49:59.952Z,69.16
2019-02-15T01:52:30.648Z,69.46
2019-02-15T01:55:01.988Z,69.41
2019-02-15T01:57:32.832Z,69.46
2019-02-15T02:00:04.167Z,69.41
2019-02-15T02:02:34.940Z,69.86
2019-02-15T02:05:06.341Z,70.06
2019-02-15T02:07:36.709Z,69.93
2019-02-15T02:10:09.903Z,70.19
2019-02-15T02:12:40.806Z,70.36
2019-02-15T02:15:11.842Z,70.42
2019-02-15T02:17:42.588Z,70.63
2019-02-15T02:20:13.435Z,70.64
2019-02-15T02:22:44.164Z,70.86
2019-02-15T02:25:14.884Z,70.96
2019-02-15T02:27:45.636Z,70.76
2019-02-15T02:30:16.454Z,71.06
2019-02-15T02:32:47.310Z,71.18
2019-02-15T02:35:18.124Z,71.26
2019-02-15T02:37:49.018Z,71.24
2019-02-15T02:40:19.825Z,70.90
2019-02-15T02:42:50.543Z,70.90
2019-02-15T02:45:21.484Z,71.16
2019-02-15T02:47:52.224Z,71.10
2019-02-15T02:50:22.963Z,70.89
2019-02-15T02:52:53.681Z,71.04
2019-02-15T02:55:24.421Z,71.19
2019-02-15T02:57:55.149Z,70.91
2019-02-15T03:00:33.296Z,70.83
2019-02-15T03:02:58.489Z,70.88
2019-02-15T03:05:28.939Z,70.68
2019-02-15T03:07:59.741Z,70.93
2019-02-15T03:10:30.565Z,70.73
2019-02-15T03:13:00.947Z,70.49
2019-02-15T03:15:31.740Z,70.62
2019-02-15T03:18:02.563Z,70.49
2019-02-15T03:20:32.978Z,70.52
2019-02-15T03:23:03.431Z,70.71
2019-02-15T03:25:34.261Z,70.51
2019-02-15T03:28:04.701Z,70.59
2019-02-15T03:30:35.411Z,70.71
2019-02-15T03:33:05.876Z,70.66
2019-02-15T03:35:36.782Z,70.66
2019-02-15T03:38:09.152Z,70.55
2019-02-15T03:40:40.914Z,70.55
2019-02-15T03:43:11.651Z,70.73
2019-02-15T03:45:42.687Z,70.52
2019-02-15T03:48:13.413Z,70.55
2019-02-15T03:50:44.146Z,70.31
2019-02-15T03:53:14.902Z,70.70
2019-02-15T03:55:45.709Z,70.62
2019-02-15T03:58:16.448Z,70.29
2019-02-15T04:00:46.857Z,70.31
2019-02-15T04:03:17.759Z,70.87
2019-02-15T04:05:48.672Z,70.90
2019-02-15T04:08:19.389Z,71.00
2019-02-15T04:10:50.227Z,71.41
2019-02-15T04:13:20.957Z,71.35
2019-02-15T04:15:51.696Z,71.51
2019-02-15T04:18:22.444Z,71.41
2019-02-15T04:20:53.382Z,71.47
2019-02-15T04:23:24.217Z,71.08
2019-02-15T04:25:54.949Z,71.23
2019-02-15T04:28:26.093Z,71.48
2019-02-15T04:30:56.926Z,71.48
2019-02-15T04:33:27.701Z,71.86
2019-02-15T04:35:58.496Z,71.72
2019-02-15T04:38:29.219Z,71.87
2019-02-15T04:40:59.960Z,71.72
2019-02-15T04:43:30.393Z,71.94
2019-02-15T04:46:01.230Z,72.27
2019-02-15T04:48:31.653Z,71.73
2019-02-15T04:51:02.377Z,71.98
2019-02-15T04:53:33.110Z,71.97
2019-02-15T04:56:03.576Z,72.23
2019-02-15T04:58:34.281Z,72.42
2019-02-15T05:01:05.117Z,72.34
2019-02-15T05:03:35.892Z,72.60
2019-02-15T05:06:06.686Z,72.55
2019-02-15T05:08:37.435Z,72.37
2019-02-15T05:11:08.164Z,72.47
2019-02-15T05:13:38.996Z,72.80
2019-02-15T05:16:09.726Z,72.67
2019-02-15T05:18:40.600Z,72.98
2019-02-15T05:21:12.894Z,72.90
2019-02-15T05:23:43.899Z,72.72
2019-02-15T05:26:14.723Z,72.69
2019-02-15T05:28:45.483Z,72.67
2019-02-15T05:31:16.295Z,72.54
2019-02-15T05:33:47.058Z,72.65
2019-02-15T05:36:17.534Z,72.79
2019-02-15T05:38:48.300Z,73.06
2019-02-15T05:41:19.022Z,72.93
2019-02-15T05:43:49.742Z,72.48
2019-02-15T05:46:20.409Z,72.24
2019-02-15T05:48:51.230Z,72.59
2019-02-15T05:51:21.959Z,72.59
2019-02-15T05:53:52.694Z,72.77
2019-02-15T05:56:23.537Z,72.94
2019-02-15T05:58:54.384Z,73.01
2019-02-15T06:01:26.328Z,72.90
2019-02-15T06:03:57.085Z,72.90
2019-02-15T06:06:28.088Z,72.97
2019-02-15T06:08:58.956Z,73.09
2019-02-15T06:11:29.922Z,73.25
2019-02-15T06:14:00.502Z,73.29
2019-02-15T06:16:31.044Z,73.40
2019-02-15T06:19:01.920Z,73.40
2019-02-15T06:21:32.736Z,73.81
2019-02-15T06:24:03.516Z,73.71
2019-02-15T06:26:34.273Z,73.81
2019-02-15T06:29:05.020Z,73.94
2019-02-15T06:31:35.870Z,73.99
2019-02-15T06:34:06.612Z,73.79
2019-02-15T06:36:38.973Z,74.07
2019-02-15T06:39:09.814Z,73.86
2019-02-15T06:41:40.559Z,73.99
2019-02-15T06:44:11.004Z,73.69
2019-02-15T06:46:41.914Z,73.75
2019-02-15T06:49:12.731Z,73.78
2019-02-15T06:51:45.035Z,73.85
2019-02-15T06:54:15.869Z,73.79
2019-02-15T06:56:46.601Z,73.88
2019-02-15T06:59:34.905Z,73.78
2019-02-15T07:02:14.388Z,73.96
2019-02-15T07:05:02.773Z,73.97
2019-02-15T07:07:33.675Z,73.94
2019-02-15T07:10:08.278Z,73.85
2019-02-15T07:12:39.114Z,73.90
2019-02-15T07:15:09.873Z,73.74
2019-02-15T07:17:40.720Z,73.72
2019-02-15T07:20:11.548Z,73.20
2019-02-15T07:22:42.462Z,72.17
2019-02-15T07:25:14.152Z,72.47
2019-02-15T07:27:49.017Z,72.18
2019-02-15T07:30:19.948Z,71.35
2019-02-15T07:32:50.456Z,71.15
2019-02-15T07:35:21.320Z,71.11
2019-02-15T07:37:54.965Z,70.98
2019-02-15T07:40:25.578Z,70.12
2019-02-15T07:42:56.439Z,69.92
2019-02-15T07:45:26.854Z,69.51
2019-02-15T07:47:58.633Z,69.62
2019-02-15T07:50:29.778Z,70.17
2019-02-15T07:53:02.030Z,70.13
2019-02-15T07:55:32.773Z,70.07
2019-02-15T07:58:03.606Z,69.83
2019-02-15T08:00:34.445Z,69.70
2019-02-15T08:03:05.624Z,69.43
2019-02-15T08:05:36.507Z,69.05
2019-02-15T08:08:07.365Z,69.24
2019-02-15T08:10:39.415Z,69.03
2019-02-15T08:13:10.218Z,69.09
2019-02-15T08:15:40.990Z,68.94
2019-02-15T08:18:11.844Z,68.89
2019-02-15T08:20:44.201Z,68.72
2019-02-15T08:23:15.042Z,68.68
2019-02-15T08:25:45.891Z,67.98
2019-02-15T08:28:16.605Z,67.80
2019-02-15T08:30:46.992Z,68.25
2019-02-15T08:33:17.981Z,68.35
2019-02-15T08:35:48.824Z,67.00
2019-02-15T08:38:19.664Z,67.05
2019-02-15T08:40:50.480Z,66.26
2019-02-15T08:43:21.211Z,66.90
2019-02-15T08:46:00.327Z,66.24
2019-02-15T08:48:24.463Z,66.51
2019-02-15T08:50:55.293Z,66.42
2019-02-15T08:53:26.115Z,66.52
2019-02-15T08:55:56.861Z,65.62
2019-02-15T08:58:27.548Z,66.03
2019-02-15T09:00:58.117Z,66.27
2019-02-15T09:03:28.671Z,64.98
2019-02-15T09:05:59.492Z,64.37
2019-02-15T09:08:30.313Z,64.42
2019-02-15T09:11:02.442Z,65.16
2019-02-15T09:13:33.432Z,64.61
2019-02-15T09:16:10.000Z,64.39
2019-02-15T09:18:36.846Z,65.05
2019-02-15T09:21:07.715Z,64.16
2019-02-15T09:23:38.688Z,63.96
2019-02-15T09:26:17.816Z,64.61
2019-02-15T09:28:44.081Z,63.99
2019-02-15T09:31:14.822Z,64.17
2019-02-15T09:33:45.538Z,64.67
2019-02-15T09:36:15.997Z,63.42
2019-02-15T09:38:47.036Z,64.52
2019-02-15T09:41:17.950Z,64.37
2019-02-15T09:43:48.796Z,64.28
2019-02-15T09:46:20.375Z,64.12
2019-02-15T09:48:51.385Z,63.96
2019-02-15T09:51:22.145Z,61.93
2019-02-15T09:53:53.203Z,62.32
2019-02-15T09:56:24.020Z,62.43
2019-02-15T09:58:54.711Z,62.46
2019-02-15T10:01:25.565Z,62.21
2019-02-15T10:03:56.407Z,62.95
2019-02-15T10:06:27.153Z,62.82
2019-02-15T10:08:58.171Z,62.26
2019-02-15T10:11:29.010Z,61.71
2019-02-15T10:14:02.949Z,61.84
2019-02-15T10:16:33.864Z,61.16
2019-02-15T10:19:04.673Z,61.52
2019-02-15T10:21:35.431Z,61.27
2019-02-15T10:24:06.218Z,60.86
2019-02-15T10:26:36.927Z,60.14
2019-02-15T10:29:10.926Z,58.90
2019-02-15T10:31:41.873Z,59.21
2019-02-15T10:34:12.678Z,58.22
2019-02-15T10:36:43.512Z,57.80
2019-02-15T10:39:13.990Z,58.20
2019-02-15T10:41:44.785Z,58.12
2019-02-15T10:44:15.640Z,58.43
2019-02-15T10:46:46.555Z,58.14
2019-02-15T10:49:17.425Z,58.37
2019-02-15T10:51:48.342Z,57.67
2019-02-15T10:54:19.192Z,57.37
2019-02-15T10:56:50.014Z,58.22
2019-02-15T10:59:23.513Z,57.80
2019-02-15T11:01:53.898Z,56.37
2019-02-15T11:04:24.643Z,55.98
2019-02-15T11:06:55.375Z,54.99
2019-02-15T11:09:25.817Z,53.61
2019-02-15T11:11:56.565Z,54.07
2019-02-15T11:14:27.402Z,53.43
2019-02-15T11:16:58.254Z,53.01
2019-02-15T11:19:30.614Z,52.67
2019-02-15T11:22:01.490Z,54.15
2019-02-15T11:24:36.678Z,52.77
2019-02-15T11:27:07.417Z,51.66
2019-02-15T11:29:43.982Z,50.36
2019-02-15T11:32:16.269Z,50.76
2019-02-15T11:34:49.856Z,49.88
2019-02-15T11:37:22.396Z,48.69
2019-02-15T11:39:54.699Z,49.42
2019-02-15T11:42:25.433Z,50.36
2019-02-15T11:44:57.708Z,48.25
2019-02-15T11:47:34.900Z,49.55
2019-02-15T11:50:08.289Z,48.94
2019-02-15T11:52:40.573Z,49.19
2019-02-15T11:55:11.937Z,50.15
2019-02-15T11:57:43.153Z,49.15
2019-02-15T12:00:21.097Z,52.07
2019-02-15T12:02:51.708Z,49.38
2019-02-15T12:05:22.545Z,48.33
2019-02-15T12:07:54.923Z,46.19
2019-02-15T12:10:25.842Z,46.50
2019-02-15T12:12:56.692Z,46.45
2019-02-15T12:15:29.008Z,47.48
2019-02-15T12:17:59.900Z,49.28
2019-02-15T12:20:33.614Z,48.48
2019-02-15T12:23:05.453Z,46.73
2019-02-15T12:25:41.517Z,47.46
2019-02-15T12:28:15.010Z,47.79
2019-02-15T12:30:47.297Z,46.88
2019-02-15T12:33:18.560Z,47.55
2019-02-15T12:35:49.446Z,46.55
2019-02-15T12:38:22.984Z,46.74
2019-02-15T12:40:53.816Z,46.24
2019-02-15T12:43:24.547Z,48.67
2019-02-15T12:45:57.123Z,47.80
2019-02-15T12:48:27.957Z,45.85
2019-02-15T12:51:02.008Z,47.06
2019-02-15T12:53:32.832Z,46.93
2019-02-15T12:56:08.687Z,47.11
2019-02-15T12:58:44.075Z,47.52
2019-02-15T13:01:14.846Z,49.07
2019-02-15T13:03:45.376Z,47.11
2019-02-15T13:06:16.207Z,51.85
2019-02-15T13:08:47.759Z,51.70
2019-02-15T13:11:18.624Z,47.23
2019-02-15T13:13:55.613Z,46.83
2019-02-15T13:16:26.410Z,45.46
2019-02-15T13:18:58.900Z,45.77
2019-02-15T13:21:31.217Z,46.08
2019-02-15T13:24:04.954Z,48.06
2019-02-15T13:26:37.337Z,48.90
2019-02-15T13:29:19.958Z,47.75
2019-02-15T13:31:51.179Z,45.66
2019-02-15T13:34:23.473Z,43.36
2019-02-15T13:36:58.318Z,45.21
2019-02-15T13:39:40.608Z,45.66
2019-02-15T13:42:11.851Z,43.57
2019-02-15T13:44:43.215Z,43.85
2019-02-15T13:47:15.476Z,42.91
2019-02-15T13:49:49.322Z,44.51
2019-02-15T13:52:22.665Z,45.27
2019-02-15T13:54:53.528Z,46.00
2019-02-15T13:57:24.440Z,42.91
2019-02-15T13:59:57.164Z,42.29
2019-02-15T14:02:31.018Z,42.58
2019-02-15T14:05:02.180Z,43.19
2019-02-15T14:07:37.414Z,41.28
2019-02-15T14:10:10.994Z,45.39
2019-02-15T14:12:41.864Z,41.94
2019-02-15T14:15:13.303Z,41.49
2019-02-15T14:17:46.513Z,41.94
2019-02-15T14:20:16.828Z,42.62
2019-02-15T14:22:50.136Z,45.83
2019-02-15T14:25:21.552Z,45.50
2019-02-15T14:27:52.305Z,45.07
2019-02-15T14:30:23.141Z,43.69
2019-02-15T14:32:53.869Z,42.12
2019-02-15T14:35:24.824Z,41.84
2019-02-15T14:37:55.666Z,41.48
2019-02-15T14:40:26.496Z,44.18
2019-02-15T14:42:58.751Z,43.51
2019-02-15T14:45:29.211Z,43.88
2019-02-15T14:48:00.015Z,44.07
2019-02-15T14:50:30.866Z,43.10
2019-02-15T14:53:01.791Z,44.28
2019-02-15T14:55:32.627Z,44.13
2019-02-15T14:58:05.150Z,41.28
2019-02-15T15:00:35.942Z,41.39
2019-02-15T15:03:06.804Z,39.70
2019-02-15T15:05:37.662Z,42.32
2019-02-15T15:08:08.480Z,39.83
2019-02-15T15:10:39.589Z,38.92
2019-02-15T15:13:10.325Z,37.74
2019-02-15T15:15:41.483Z,37.75
2019-02-15T15:18:13.456Z,39.17
2019-02-15T15:20:44.992Z,42.43
2019-02-15T15:23:15.858Z,45.96
2019-02-15T15:25:46.776Z,42.16
2019-02-15T15:28:17.632Z,42.90
2019-02-15T15:30:48.543Z,43.63
2019-02-15T15:33:19.328Z,42.08
2019-02-15T15:35:50.183Z,43.77
2019-02-15T15:38:20.626Z,44.69
2019-02-15T15:40:51.499Z,44.47
2019-02-15T15:43:22.398Z,44.97
2019-02-15T15:45:52.907Z,42.28
2019-02-15T15:48:23.733Z,44.00
2019-02-15T15:50:54.633Z,43.77
2019-02-15T15:53:25.474Z,44.34
2019-02-15T15:55:56.311Z,43.89
2019-02-15T15:58:27.460Z,43.11
2019-02-15T16:00:58.425Z,42.16
2019-02-15T16:03:29.262Z,43.05
2019-02-15T16:06:00.681Z,43.11
2019-02-15T16:08:31.541Z,43.26
2019-02-15T16:11:02.594Z,42.37
2019-02-15T16:13:33.635Z,42.87
2019-02-15T16:16:07.575Z,42.93
2019-02-15T16:18:38.708Z,44.48
2019-02-15T16:21:09.607Z,45.82
2019-02-15T16:23:41.899Z,45.23
2019-02-15T16:26:12.882Z,45.58
2019-02-15T16:28:44.041Z,46.29
2019-02-15T16:31:14.889Z,46.21
2019-02-15T16:33:46.417Z,46.17
2019-02-15T16:36:17.291Z,46.77
2019-02-15T16:38:48.165Z,46.87
2019-02-15T16:41:20.325Z,47.77
2019-02-15T16:43:52.048Z,48.01
2019-02-15T16:46:22.927Z,48.03
2019-02-15T16:48:53.862Z,48.90
2019-02-15T16:51:25.479Z,49.33
2019-02-15T16:54:00.823Z,49.91
2019-02-15T16:56:31.661Z,50.37
2019-02-15T16:59:02.476Z,50.53
2019-02-15T17:01:33.330Z,50.71
2019-02-15T17:04:04.068Z,50.72
2019-02-15T17:06:35.410Z,51.17
2019-02-15T17:09:07.888Z,51.52
2019-02-15T17:11:39.825Z,51.65
2019-02-15T17:14:10.572Z,51.50
2019-02-15T17:16:41.470Z,51.59
2019-02-15T17:19:15.148Z,52.05
2019-02-15T17:21:47.365Z,52.22
2019-02-15T17:24:18.478Z,52.46
2019-02-15T17:26:49.373Z,52.98
2019-02-15T17:29:23.321Z,53.01
2019-02-15T17:31:57.089Z,53.24
2019-02-15T17:34:30.891Z,53.57
2019-02-15T17:37:01.650Z,54.14
2019-02-15T17:39:32.661Z,54.25
2019-02-15T17:42:03.608Z,54.31
2019-02-15T17:44:34.834Z,54.40
2019-02-15T17:47:05.731Z,54.63
2019-02-15T17:49:41.207Z,54.98
2019-02-15T17:52:13.156Z,55.21
2019-02-15T17:54:44.117Z,55.33
2019-02-15T17:57:16.663Z,55.70
2019-02-15T17:59:47.434Z,56.20
2019-02-15T18:02:18.433Z,56.34
2019-02-15T18:04:49.225Z,56.04
2019-02-15T18:07:20.592Z,56.34
2019-02-15T18:09:51.335Z,55.71
2019-02-15T18:12:22.341Z,56.74
2019-02-15T18:14:59.544Z,56.65
2019-02-15T18:17:30.962Z,56.97
2019-02-15T18:20:01.743Z,56.95
2019-02-15T18:22:32.667Z,56.83
2019-02-15T18:25:06.573Z,57.07
2019-02-15T18:27:37.932Z,57.50
2019-02-15T18:30:12.229Z,57.77
2019-02-15T18:32:43.139Z,57.63
2019-02-15T18:35:14.427Z,57.95
2019-02-15T18:37:45.358Z,57.75
2019-02-15T18:40:16.211Z,57.51
2019-02-15T18:42:47.036Z,57.92
2019-02-15T18:45:23.008Z,57.88
2019-02-15T18:47:55.271Z,58.05
2019-02-15T18:50:30.587Z,58.20
2019-02-15T18:53:01.456Z,58.13
2019-02-15T18:55:42.979Z,58.05
2019-02-15T18:58:19.644Z,58.23
2019-02-15T19:00:55.540Z,59.32
2019-02-15T19:03:30.142Z,58.80
2019-02-15T19:06:01.029Z,58.34
2019-02-15T19:08:31.558Z,58.45
2019-02-15T19:11:01.994Z,58.59
2019-02-15T19:13:32.968Z,59.22
2019-02-15T19:16:03.859Z,59.45
2019-02-15T19:18:34.508Z,59.01
2019-02-15T19:21:05.368Z,59.10
2019-02-15T19:23:36.416Z,58.89
2019-02-15T19:26:07.318Z,59.27
2019-02-15T19:28:38.315Z,59.70
2019-02-15T19:31:09.237Z,59.63
2019-02-15T19:33:41.619Z,59.52
2019-02-15T19:36:12.560Z,59.20
2019-02-15T19:38:43.214Z,59.71
2019-02-15T19:41:14.046Z,59.59
2019-02-15T19:43:44.936Z,60.08
2019-02-15T19:46:20.428Z,59.93
2019-02-15T19:48:55.985Z,60.01
2019-02-15T19:51:33.418Z,59.98
2019-02-15T19:54:19.161Z,60.24
2019-02-15T19:56:49.221Z,60.03
2019-02-15T19:59:19.990Z,60.05
2019-02-15T20:01:53.465Z,60.11
2019-02-15T20:04:24.394Z,59.95
2019-02-15T20:06:54.982Z,59.92
2019-02-15T20:09:26.903Z,60.03
2019-02-15T20:11:57.797Z,59.72
2019-02-15T20:14:28.766Z,59.87
2019-02-15T20:17:01.967Z,60.24
2019-02-15T20:19:33.608Z,59.58
2019-02-15T20:22:04.789Z,59.80
2019-02-15T20:24:37.114Z,60.34
2019-02-15T20:27:11.378Z,60.66
2019-02-15T20:29:52.357Z,60.56
2019-02-15T20:32:27.110Z,60.37
2019-02-15T20:35:08.264Z,61.03
2019-02-15T20:37:38.961Z,60.36
2019-02-15T20:40:11.505Z,60.50
2019-02-15T20:42:42.600Z,60.71
2019-02-15T20:45:22.787Z,60.74
2019-02-15T20:47:53.638Z,60.48
2019-02-15T20:50:24.594Z,60.31
2019-02-15T20:52:55.253Z,61.02
2019-02-15T20:55:26.636Z,60.62
2019-02-15T20:57:57.179Z,60.76
2019-02-15T21:00:29.679Z,60.72
2019-02-15T21:03:02.832Z,60.83
2019-02-15T21:05:35.172Z,60.94
2019-02-15T21:08:11.808Z,60.99
2019-02-15T21:10:54.275Z,60.96
2019-02-15T21:13:20.525Z,60.66
2019-02-15T21:15:53.012Z,61.12
2019-02-15T21:18:24.078Z,61.23
2019-02-15T21:20:55.212Z,61.10
2019-02-15T21:23:26.176Z,61.03
2019-02-15T21:25:57.069Z,61.78
2019-02-15T21:28:27.841Z,61.44
2019-02-15T21:30:58.771Z,61.37
2019-02-15T21:33:35.455Z,61.54
2019-02-15T21:36:06.252Z,62.10
2019-02-15T21:38:38.728Z,61.84
2019-02-15T21:41:09.671Z,62.03
2019-02-15T21:43:41.039Z,62.34
2019-02-15T21:46:13.407Z,62.28
2019-02-15T21:48:45.672Z,62.33
2019-02-15T21:51:17.932Z,62.53
2019-02-15T21:53:49.293Z,62.44
2019-02-15T21:56:20.119Z,63.09
2019-02-15T21:58:51.320Z,62.38
2019-02-15T22:01:22.109Z,63.02
2019-02-15T22:03:53.236Z,62.88
2019-02-15T22:06:24.066Z,62.80
2019-02-15T22:08:55.140Z,63.05
2019-02-15T22:11:27.504Z,63.11
2019-02-15T22:13:58.377Z,63.27
2019-02-15T22:16:28.936Z,63.38
2019-02-15T22:18:59.788Z,63.27
2019-02-15T22:21:30.570Z,63.30
2019-02-15T22:24:01.475Z,63.65
2019-02-15T22:26:34.360Z,63.51
2019-02-15T22:29:05.306Z,63.74
2019-02-15T22:31:36.192Z,63.87
2019-02-15T22:34:08.590Z,63.93
2019-02-15T22:36:39.333Z,64.14
2019-02-15T22:39:10.079Z,63.89
2019-02-15T22:41:42.465Z,64.03
2019-02-15T22:44:13.284Z,63.88
2019-02-15T22:46:44.037Z,63.86
2019-02-15T22:49:14.946Z,64.44
2019-02-15T22:51:45.696Z,64.70
2019-02-15T22:54:16.254Z,64.51
2019-02-15T22:56:47.085Z,64.48
2019-02-15T22:59:18.010Z,64.70
2019-02-15T23:01:48.948Z,64.82
2019-02-15T23:04:21.519Z,65.04
2019-02-15T23:06:52.346Z,65.07
2019-02-15T23:09:25.021Z,65.36
2019-02-15T23:11:55.784Z,65.33
2019-02-15T23:14:26.614Z,65.33
2019-02-15T23:16:57.042Z,65.51
2019-02-15T23:19:27.878Z,65.57
2019-02-15T23:21:58.584Z,65.79
2019-02-15T23:24:30.364Z,65.70
2019-02-15T23:27:02.627Z,66.10
2019-02-15T23:29:38.081Z,65.97
2019-02-15T23:32:10.434Z,66.18
2019-02-15T23:34:40.822Z,65.97
2019-02-15T23:37:11.623Z,66.21
2019-02-15T23:39:42.456Z,66.06
2019-02-15T23:42:13.301Z,66.39
2019-02-15T23:44:44.119Z,66.36
2019-02-15T23:47:14.960Z,66.83
2019-02-15T23:49:45.693Z,66.71
2019-02-15T23:52:16.627Z,66.88
2019-02-15T23:54:47.615Z,66.67
2019-02-15T23:57:18.380Z,66.82
2019-02-15T23:59:49.160Z,66.84
